sensor_id;sensor_type;location;lat;lon;timestamp;pressure;altitude;pressure_sealevel;temperature
18474;BMP180;30265;52.408;13.500;2023-06-19T00:08:29;101694.00;;;22.50
18474;BMP180;30265;52.408;13.500;2023-06-19T00:18:52;101694.00;;;22.60
18474;BMP180;30265;52.408;13.500;2023-06-19T00:29:16;101695.00;;;22.60
18474;BMP180;30265;52.408;13.500;2023-06-19T00:39:39;101689.00;;;22.80
18474;BMP180;30265;52.408;13.500;2023-06-19T00:50:05;101691.00;;;23.00
18474;BMP180;30265;52.408;13.500;2023-06-19T01:00:29;101686.00;;;23.00
18474;BMP180;30265;52.408;13.500;2023-06-19T01:10:54;101675.00;;;22.90
18474;BMP180;30265;52.408;13.500;2023-06-19T01:21:18;101669.00;;;22.90
18474;BMP180;30265;52.408;13.500;2023-06-19T01:31:48;101668.00;;;22.80
18474;BMP180;30265;52.408;13.500;2023-06-19T01:42:13;101657.00;;;22.50
18474;BMP180;30265;52.408;13.500;2023-06-19T01:52:37;101657.00;;;22.30
18474;BMP180;30265;52.408;13.500;2023-06-19T02:02:59;101646.00;;;22.20
18474;BMP180;30265;52.408;13.500;2023-06-19T02:13:23;101642.00;;;22.20
18474;BMP180;30265;52.408;13.500;2023-06-19T02:23:46;199084.00;;;22.00
18474;BMP180;30265;52.408;13.500;2023-06-19T02:34:09;78079.00;;;22.00
18474;BMP180;30265;52.408;13.500;2023-06-19T02:44:31;101664.00;;;21.80
18474;BMP180;30265;52.408;13.500;2023-06-19T02:54:54;101616.00;;;22.00
18474;BMP180;30265;52.408;13.500;2023-06-19T03:05:16;101579.00;;;22.10
18474;BMP180;30265;52.408;13.500;2023-06-19T03:15:39;199084.00;;;-50.10
18474;BMP180;30265;52.408;13.500;2023-06-19T03:26:01;101444.00;;;22.90
18474;BMP180;30265;52.408;13.500;2023-06-19T03:36:25;101500.00;;;23.20
18474;BMP180;30265;52.408;13.500;2023-06-19T03:46:50;77753.00;;;23.30
18474;BMP180;30265;52.408;13.500;2023-06-19T03:57:19;244657.00;;;232.30
18474;BMP180;30265;52.408;13.500;2023-06-19T04:18:36;244657.00;;;232.30
18474;BMP180;30265;52.408;13.500;2023-06-19T04:28:59;244657.00;;;232.30
18474;BMP180;30265;52.408;13.500;2023-06-19T04:39:23;244653.00;;;-50.10
18474;BMP180;30265;52.408;13.500;2023-06-19T04:49:45;199084.00;;;24.20
18474;BMP180;30265;52.408;13.500;2023-06-19T05:00:09;199082.00;;;-50.10
18474;BMP180;30265;52.408;13.500;2023-06-19T05:10:37;199086.00;;;-50.10
18474;BMP180;30265;52.408;13.500;2023-06-19T05:21:00;199086.00;;;24.40
18474;BMP180;30265;52.408;13.500;2023-06-19T05:31:22;244653.00;;;-50.10
18474;BMP180;30265;52.408;13.500;2023-06-19T05:41:46;244655.00;;;232.30
18474;BMP180;30265;52.408;13.500;2023-06-19T05:52:08;244653.00;;;-50.10
18474;BMP180;30265;52.408;13.500;2023-06-19T06:02:32;244653.00;;;-50.10
18474;BMP180;30265;52.408;13.500;2023-06-19T06:12:54;101589.00;;;25.20
18474;BMP180;30265;52.408;13.500;2023-06-19T06:23:21;101607.00;;;25.50
18474;BMP180;30265;52.408;13.500;2023-06-19T06:33:44;244655.00;;;-50.10
18474;BMP180;30265;52.408;13.500;2023-06-19T06:44:07;199084.00;;;-50.10
18474;BMP180;30265;52.408;13.500;2023-06-19T06:54:29;141894.00;;;25.90
18474;BMP180;30265;52.408;13.500;2023-06-19T07:04:52;77144.00;;;26.00
18474;BMP180;30265;52.408;13.500;2023-06-19T07:15:14;77025.00;;;26.60
18474;BMP180;30265;52.408;13.500;2023-06-19T07:25:39;244655.00;;;-50.10
18474;BMP180;30265;52.408;13.500;2023-06-19T07:36:03;199086.00;;;-50.10
18474;BMP180;30265;52.408;13.500;2023-06-19T07:46:26;244653.00;;;-50.10
18474;BMP180;30265;52.408;13.500;2023-06-19T07:56:48;101544.00;;;28.80
18474;BMP180;30265;52.408;13.500;2023-06-19T08:07:12;76273.00;;;29.80
18474;BMP180;30265;52.408;13.500;2023-06-19T08:17:34;101568.00;;;29.80
18474;BMP180;30265;52.408;13.500;2023-06-19T08:27:58;101587.00;;;29.60
18474;BMP180;30265;52.408;13.500;2023-06-19T08:38:19;101585.00;;;30.50
18474;BMP180;30265;52.408;13.500;2023-06-19T08:48:45;101579.00;;;29.90
18474;BMP180;30265;52.408;13.500;2023-06-19T08:59:12;101577.00;;;30.20
18474;BMP180;30265;52.408;13.500;2023-06-19T09:09:36;101580.00;;;31.00
18474;BMP180;30265;52.408;13.500;2023-06-19T09:19:58;199082.00;;;-50.10
18474;BMP180;30265;52.408;13.500;2023-06-19T09:30:23;101582.00;;;30.30
18474;BMP180;30265;52.408;13.500;2023-06-19T09:40:47;101583.00;;;30.40
18474;BMP180;30265;52.408;13.500;2023-06-19T09:51:17;101587.00;;;30.90
18474;BMP180;30265;52.408;13.500;2023-06-19T10:01:45;101586.00;;;31.10
18474;BMP180;30265;52.408;13.500;2023-06-19T10:12:13;101562.00;;;30.80
18474;BMP180;30265;52.408;13.500;2023-06-19T10:22:35;101544.00;;;30.70
18474;BMP180;30265;52.408;13.500;2023-06-19T10:32:58;101518.00;;;31.30
18474;BMP180;30265;52.408;13.500;2023-06-19T10:43:21;101523.00;;;31.90
18474;BMP180;30265;52.408;13.500;2023-06-19T10:53:46;101509.00;;;31.80
18474;BMP180;30265;52.408;13.500;2023-06-19T11:04:09;101499.00;;;31.60
18474;BMP180;30265;52.408;13.500;2023-06-19T11:14:33;101500.00;;;32.70
18474;BMP180;30265;52.408;13.500;2023-06-19T11:25:02;101480.00;;;32.70
18474;BMP180;30265;52.408;13.500;2023-06-19T11:35:32;101481.00;;;32.00
18474;BMP180;30265;52.408;13.500;2023-06-19T11:46:02;101468.00;;;32.30
18474;BMP180;30265;52.408;13.500;2023-06-19T11:56:26;101480.00;;;32.50
18474;BMP180;30265;52.408;13.500;2023-06-19T12:06:47;101471.00;;;33.10
18474;BMP180;30265;52.408;13.500;2023-06-19T12:17:11;101456.00;;;33.60
18474;BMP180;30265;52.408;13.500;2023-06-19T12:27:33;101435.00;;;35.20
18474;BMP180;30265;52.408;13.500;2023-06-19T12:37:56;101438.00;;;35.00
18474;BMP180;30265;52.408;13.500;2023-06-19T12:48:18;101440.00;;;34.70
18474;BMP180;30265;52.408;13.500;2023-06-19T12:58:41;101413.00;;;35.60
18474;BMP180;30265;52.408;13.500;2023-06-19T13:09:04;101435.00;;;34.80
18474;BMP180;30265;52.408;13.500;2023-06-19T13:19:27;101413.00;;;35.10
18474;BMP180;30265;52.408;13.500;2023-06-19T13:29:49;101392.00;;;36.40
18474;BMP180;30265;52.408;13.500;2023-06-19T13:40:12;101397.00;;;35.30
18474;BMP180;30265;52.408;13.500;2023-06-19T13:50:34;101400.00;;;36.00
18474;BMP180;30265;52.408;13.500;2023-06-19T14:00:57;101390.00;;;35.80
18474;BMP180;30265;52.408;13.500;2023-06-19T14:11:19;101377.00;;;35.60
18474;BMP180;30265;52.408;13.500;2023-06-19T14:21:42;101390.00;;;35.60
18474;BMP180;30265;52.408;13.500;2023-06-19T14:32:04;101391.00;;;36.30
18474;BMP180;30265;52.408;13.500;2023-06-19T14:42:27;101415.00;;;35.20
18474;BMP180;30265;52.408;13.500;2023-06-19T14:52:49;101393.00;;;35.30
18474;BMP180;30265;52.408;13.500;2023-06-19T15:03:12;101392.00;;;35.70
18474;BMP180;30265;52.408;13.500;2023-06-19T15:13:34;101406.00;;;36.40
18474;BMP180;30265;52.408;13.500;2023-06-19T15:23:58;101390.00;;;36.90
18474;BMP180;30265;52.408;13.500;2023-06-19T15:34:19;101404.00;;;36.00
18474;BMP180;30265;52.408;13.500;2023-06-19T15:44:43;101378.00;;;36.00
18474;BMP180;30265;52.408;13.500;2023-06-19T15:55:05;101393.00;;;35.50
18474;BMP180;30265;52.408;13.500;2023-06-19T16:05:30;101374.00;;;36.40
18474;BMP180;30265;52.408;13.500;2023-06-19T16:15:52;101382.00;;;35.90
18474;BMP180;30265;52.408;13.500;2023-06-19T16:26:15;101386.00;;;35.30
18474;BMP180;30265;52.408;13.500;2023-06-19T16:36:37;101376.00;;;36.00
18474;BMP180;30265;52.408;13.500;2023-06-19T16:47:02;101393.00;;;35.10
18474;BMP180;30265;52.408;13.500;2023-06-19T16:57:24;101408.00;;;34.50
18474;BMP180;30265;52.408;13.500;2023-06-19T17:07:50;101401.00;;;34.10
18474;BMP180;30265;52.408;13.500;2023-06-19T17:18:12;101392.00;;;34.30
18474;BMP180;30265;52.408;13.500;2023-06-19T17:28:36;101398.00;;;34.00
18474;BMP180;30265;52.408;13.500;2023-06-19T17:38:58;101403.00;;;33.80
18474;BMP180;30265;52.408;13.500;2023-06-19T17:49:21;101412.00;;;33.50
18474;BMP180;30265;52.408;13.500;2023-06-19T17:59:43;101415.00;;;33.10
18474;BMP180;30265;52.408;13.500;2023-06-19T18:10:07;101408.00;;;32.70
18474;BMP180;30265;52.408;13.500;2023-06-19T18:20:34;101419.00;;;32.50
18474;BMP180;30265;52.408;13.500;2023-06-19T18:30:57;101416.00;;;32.30
18474;BMP180;30265;52.408;13.500;2023-06-19T18:41:19;101424.00;;;32.20
18474;BMP180;30265;52.408;13.500;2023-06-19T18:51:43;101431.00;;;32.00
18474;BMP180;30265;52.408;13.500;2023-06-19T19:02:06;101448.00;;;31.60
18474;BMP180;30265;52.408;13.500;2023-06-19T19:12:31;101455.00;;;31.00
18474;BMP180;30265;52.408;13.500;2023-06-19T19:22:53;101467.00;;;30.70
18474;BMP180;30265;52.408;13.500;2023-06-19T19:33:16;101476.00;;;30.40
18474;BMP180;30265;52.408;13.500;2023-06-19T19:43:38;101482.00;;;30.10
18474;BMP180;30265;52.408;13.500;2023-06-19T19:54:01;101486.00;;;29.80
18474;BMP180;30265;52.408;13.500;2023-06-19T20:04:23;101487.00;;;29.50
18474;BMP180;30265;52.408;13.500;2023-06-19T20:14:46;101491.00;;;29.30
18474;BMP180;30265;52.408;13.500;2023-06-19T20:25:08;101499.00;;;29.10
18474;BMP180;30265;52.408;13.500;2023-06-19T20:35:31;101507.00;;;28.90
18474;BMP180;30265;52.408;13.500;2023-06-19T20:45:53;101515.00;;;28.50
18474;BMP180;30265;52.408;13.500;2023-06-19T20:56:17;101520.00;;;28.40
18474;BMP180;30265;52.408;13.500;2023-06-19T21:06:42;101526.00;;;28.20
18474;BMP180;30265;52.408;13.500;2023-06-19T21:17:06;101528.00;;;28.20
18474;BMP180;30265;52.408;13.500;2023-06-19T21:27:40;101522.00;;;28.10
18474;BMP180;30265;52.408;13.500;2023-06-19T21:38:05;101533.00;;;27.90
18474;BMP180;30265;52.408;13.500;2023-06-19T21:48:29;101539.00;;;27.60
18474;BMP180;30265;52.408;13.500;2023-06-19T21:58:52;101547.00;;;27.30
18474;BMP180;30265;52.408;13.500;2023-06-19T22:09:13;101548.00;;;27.20
18474;BMP180;30265;52.408;13.500;2023-06-19T22:19:38;101557.00;;;26.90
18474;BMP180;30265;52.408;13.500;2023-06-19T22:30:00;101558.00;;;26.80
18474;BMP180;30265;52.408;13.500;2023-06-19T22:40:25;101560.00;;;26.50
18474;BMP180;30265;52.408;13.500;2023-06-19T22:50:47;101558.00;;;26.40
18474;BMP180;30265;52.408;13.500;2023-06-19T23:01:11;101570.00;;;25.90
18474;BMP180;30265;52.408;13.500;2023-06-19T23:11:33;101572.00;;;25.70
18474;BMP180;30265;52.408;13.500;2023-06-19T23:21:56;101584.00;;;25.70
18474;BMP180;30265;52.408;13.500;2023-06-19T23:32:17;101580.00;;;25.70
18474;BMP180;30265;52.408;13.500;2023-06-19T23:42:47;101580.00;;;25.60
18474;BMP180;30265;52.408;13.500;2023-06-19T23:53:08;101590.00;;;25.30
